Time;durP1;ratioP1;P1;durP2;ratioP2;P2;SDS_P1;SDS_P2;PMS_P1;PMS_P2;Temp;Humidity;BMP_temperature;BMP_pressure;BME280_temperature;BME280_humidity;BME280_pressure;Samples;Min_cycle;Max_cycle;Signal;HPM_P1;HPM_P2
2023/05/20 00:00:09;;;;;;;18.15;17.13;;;;;;;;;;4998461;28;20472;-58
2023/05/20 00:02:35;;;;;;;15.90;15.00;;;;;;;;;;4999719;28;20061;-57
2023/05/20 00:05:00;;;;;;;15.60;14.70;;;;;;;;;;4997647;28;20233;-57
2023/05/20 00:07:26;;;;;;;14.57;13.77;;;;;;;;;;5001981;28;20034;-58
2023/05/20 00:09:51;;;;;;;16.05;15.02;;;;;;;;;;4996682;28;20037;-58
2023/05/20 00:12:17;;;;;;;15.40;14.50;;;;;;;;;;4996077;28;20037;-58
2023/05/20 00:14:42;;;;;;;14.55;13.55;;;;;;;;;;4999738;28;20033;-57
2023/05/20 00:17:07;;;;;;;15.40;14.50;;;;;;;;;;4999843;28;20041;-58
2023/05/20 00:19:33;;;;;;;14.30;13.40;;;;;;;;;;4997470;28;20451;-58
2023/05/20 00:21:58;;;;;;;14.93;14.10;;;;;;;;;;4995756;28;20026;-58
2023/05/20 00:24:24;;;;;;;15.90;15.00;;;;;;;;;;4995654;28;20045;-57
2023/05/20 00:26:50;;;;;;;16.13;15.23;;;;;;;;;;4997804;28;20780;-57
2023/05/20 00:29:15;;;;;;;13.75;12.95;;;;;;;;;;4996185;28;20038;-58
2023/05/20 00:31:40;;;;;;;17.35;16.35;;;;;;;;;;4999886;28;20630;-58
2023/05/20 00:34:06;;;;;;;14.40;13.60;;;;;;;;;;4995608;28;20043;-58
2023/05/20 00:36:32;;;;;;;17.95;16.83;;;;;;;;;;4997270;28;20030;-58
2023/05/20 00:38:57;;;;;;;15.80;14.90;;;;;;;;;;4998846;28;20029;-58
2023/05/20 00:41:23;;;;;;;14.93;14.07;;;;;;;;;;4998260;28;20568;-58
2023/05/20 00:43:52;;;;;;;15.68;14.77;;;;;;;;;;4995251;28;20034;-58
2023/05/20 00:46:17;;;;;;;14.90;14.00;;;;;;;;;;4996404;28;20149;-58
2023/05/20 00:48:43;;;;;;;15.82;14.93;;;;;;;;;;4979951;28;20108;-58
2023/05/20 00:51:13;;;;;;;14.00;13.20;;;;;;;;;;4997889;28;20623;-58
2023/05/20 00:53:40;;;;;;;15.02;14.15;;;;;;;;;;4995833;28;20034;-58
2023/05/20 00:56:06;;;;;;;15.30;14.40;;;;;;;;;;4995633;28;20034;-58
2023/05/20 00:58:33;;;;;;;13.95;13.15;;;;;;;;;;4994610;28;20037;-58
2023/05/20 01:00:58;;;;;;;15.60;14.70;;;;;;;;;;4979840;28;20120;-58
2023/05/20 01:03:24;;;;;;;14.82;13.93;;;;;;;;;;4998376;28;20117;-58
2023/05/20 01:05:49;;;;;;;14.18;13.38;;;;;;;;;;4997244;28;20065;-58
2023/05/20 01:08:15;;;;;;;13.00;12.20;;;;;;;;;;4996222;28;20037;-58
2023/05/20 01:10:45;;;;;;;12.88;12.13;;;;;;;;;;4997179;28;20041;-58
2023/05/20 01:13:14;;;;;;;13.93;13.02;;;;;;;;;;4996308;28;20044;-58
2023/05/20 01:15:43;;;;;;;12.68;11.98;;;;;;;;;;4993137;28;20026;-58
2023/05/20 01:18:09;;;;;;;11.82;11.13;;;;;;;;;;4996433;28;20112;-58
2023/05/20 01:20:36;;;;;;;12.40;11.70;;;;;;;;;;4993423;28;20157;-64
2023/05/20 01:23:01;;;;;;;12.57;11.57;;;;;;;;;;4996968;28;20026;-64
2023/05/20 01:25:27;;;;;;;11.55;10.85;;;;;;;;;;4984745;28;20033;-58
2023/05/20 01:27:54;;;;;;;11.40;10.70;;;;;;;;;;4988670;28;20038;-63
2023/05/20 01:30:21;;;;;;;12.13;11.43;;;;;;;;;;4994487;28;20042;-64
2023/05/20 01:32:51;;;;;;;11.10;10.40;;;;;;;;;;4991106;28;20037;-64
2023/05/20 01:35:17;;;;;;;10.83;10.17;;;;;;;;;;4978010;28;20034;-63
2023/05/20 01:37:43;;;;;;;10.88;10.20;;;;;;;;;;4994743;28;20038;-64
2023/05/20 01:40:11;;;;;;;11.48;10.77;;;;;;;;;;4998724;28;20762;-63
2023/05/20 01:42:38;;;;;;;10.57;9.90;;;;;;;;;;4997916;28;20034;-64
2023/05/20 01:45:03;;;;;;;11.10;10.40;;;;;;;;;;4991536;28;20037;-64
2023/05/20 01:47:30;;;;;;;11.45;10.75;;;;;;;;;;4995232;28;20045;-64
2023/05/20 01:49:55;;;;;;;10.55;9.75;;;;;;;;;;4995230;28;20040;-63
2023/05/20 01:52:21;;;;;;;11.07;10.37;;;;;;;;;;4962353;28;1026838;-63
2023/05/20 01:54:49;;;;;;;11.18;10.35;;;;;;;;;;4998399;28;20037;-65
2023/05/20 01:57:19;;;;;;;10.18;9.57;;;;;;;;;;4994310;28;20137;-64
2023/05/20 01:59:44;;;;;;;10.57;9.98;;;;;;;;;;4992927;28;20057;-57
2023/05/20 02:02:09;;;;;;;11.75;11.05;;;;;;;;;;4998628;28;20046;-57
2023/05/20 02:04:35;;;;;;;11.55;10.85;;;;;;;;;;4999214;28;20034;-57
2023/05/20 02:07:00;;;;;;;10.57;9.98;;;;;;;;;;4995953;28;20045;-57
2023/05/20 02:09:26;;;;;;;11.07;10.38;;;;;;;;;;4991346;28;20516;-58
2023/05/20 02:11:51;;;;;;;11.50;10.80;;;;;;;;;;4996847;28;20100;-58
2023/05/20 02:14:16;;;;;;;12.18;11.48;;;;;;;;;;4997736;28;20368;-57
2023/05/20 02:16:42;;;;;;;12.52;11.80;;;;;;;;;;4993713;28;20045;-58
2023/05/20 02:19:11;;;;;;;12.00;11.18;;;;;;;;;;4997050;28;20064;-58
2023/05/20 02:21:38;;;;;;;13.35;12.55;;;;;;;;;;4996476;28;20069;-58
2023/05/20 02:24:04;;;;;;;14.45;13.63;;;;;;;;;;4999318;28;20121;-58
2023/05/20 02:26:29;;;;;;;13.70;12.90;;;;;;;;;;4997457;28;20531;-58
2023/05/20 02:28:55;;;;;;;15.43;14.52;;;;;;;;;;4996642;28;20029;-58
2023/05/20 02:31:21;;;;;;;16.92;15.93;;;;;;;;;;4994994;28;20060;-57
2023/05/20 02:33:47;;;;;;;15.88;14.98;;;;;;;;;;4993901;28;20065;-58
2023/05/20 02:36:12;;;;;;;17.52;16.52;;;;;;;;;;4997990;28;20058;-58
2023/05/20 02:38:37;;;;;;;19.45;18.35;;;;;;;;;;4995363;28;20033;-58
2023/05/20 02:41:03;;;;;;;18.90;17.85;;;;;;;;;;4995996;28;20345;-58
2023/05/20 02:43:30;;;;;;;20.45;19.20;;;;;;;;;;4993986;28;20572;-58
2023/05/20 02:45:55;;;;;;;21.50;20.27;;;;;;;;;;4998056;28;20034;-58
2023/05/20 02:48:21;;;;;;;20.40;19.30;;;;;;;;;;4990983;28;20037;-58
2023/05/20 02:50:47;;;;;;;24.48;23.17;;;;;;;;;;4996013;28;20025;-58
2023/05/20 02:53:12;;;;;;;24.50;23.00;;;;;;;;;;4998163;28;20025;-58
2023/05/20 02:55:39;;;;;;;23.20;21.98;;;;;;;;;;4974982;28;20442;-58
2023/05/20 02:58:04;;;;;;;24.77;23.48;;;;;;;;;;4995469;28;20030;-58
2023/05/20 03:00:30;;;;;;;24.40;22.90;;;;;;;;;;4987590;28;20336;-58
2023/05/20 03:02:56;;;;;;;25.48;24.13;;;;;;;;;;4998415;28;20547;-64
2023/05/20 03:05:21;;;;;;;26.73;25.30;;;;;;;;;;4987625;28;20045;-64
2023/05/20 03:07:47;;;;;;;27.42;25.92;;;;;;;;;;4998758;28;20387;-63
2023/05/20 03:10:13;;;;;;;27.23;25.77;;;;;;;;;;4998807;28;20052;-64
2023/05/20 03:12:39;;;;;;;25.38;23.98;;;;;;;;;;4996283;28;20450;-64
2023/05/20 03:15:05;;;;;;;26.35;24.95;;;;;;;;;;5002098;28;20034;-63
2023/05/20 03:17:31;;;;;;;24.45;23.15;;;;;;;;;;4997608;28;20041;-64
2023/05/20 03:19:56;;;;;;;25.80;24.30;;;;;;;;;;4984936;28;20037;-64
2023/05/20 03:22:21;;;;;;;23.52;22.27;;;;;;;;;;4999156;28;20038;-64
2023/05/20 03:24:47;;;;;;;27.65;26.05;;;;;;;;;;4998730;28;20065;-64
2023/05/20 03:27:13;;;;;;;26.48;24.90;;;;;;;;;;4997507;28;20061;-63
2023/05/20 03:29:38;;;;;;;24.25;22.95;;;;;;;;;;5002383;28;20117;-64
2023/05/20 03:32:04;;;;;;;26.98;25.52;;;;;;;;;;5005297;28;20057;-64
2023/05/20 03:34:29;;;;;;;27.20;25.77;;;;;;;;;;4999172;28;20041;-64
2023/05/20 03:36:56;;;;;;;28.80;27.27;;;;;;;;;;5005801;28;20080;-64
2023/05/20 03:39:21;;;;;;;25.52;24.13;;;;;;;;;;4999344;28;20030;-58
2023/05/20 03:41:47;;;;;;;26.45;25.05;;;;;;;;;;4997129;28;20521;-58
2023/05/20 03:44:12;;;;;;;25.17;23.85;;;;;;;;;;4995352;28;20034;-58
2023/05/20 03:46:37;;;;;;;26.85;25.40;;;;;;;;;;4995301;28;20030;-58
2023/05/20 03:49:03;;;;;;;26.00;24.63;;;;;;;;;;5000606;28;20034;-58
2023/05/20 03:51:28;;;;;;;23.70;22.38;;;;;;;;;;5000185;28;20037;-58
2023/05/20 03:53:54;;;;;;;25.95;24.50;;;;;;;;;;5000942;28;20507;-58
2023/05/20 03:56:19;;;;;;;25.55;24.17;;;;;;;;;;5000530;28;20121;-58
2023/05/20 03:58:45;;;;;;;25.58;24.13;;;;;;;;;;4998734;28;20088;-58
2023/05/20 04:01:14;;;;;;;24.58;23.27;;;;;;;;;;5001637;28;20030;-58
2023/05/20 04:03:42;;;;;;;23.80;22.40;;;;;;;;;;4997076;28;20042;-58
2023/05/20 04:06:08;;;;;;;22.80;21.55;;;;;;;;;;4997104;28;20049;-64
2023/05/20 04:08:35;;;;;;;24.33;23.02;;;;;;;;;;4996275;28;20026;-64
2023/05/20 04:11:01;;;;;;;22.67;21.48;;;;;;;;;;4996753;28;20103;-64
2023/05/20 04:13:27;;;;;;;21.45;20.25;;;;;;;;;;4998024;28;20030;-64
2023/05/20 04:15:52;;;;;;;21.25;20.02;;;;;;;;;;5000358;28;20034;-64
2023/05/20 04:18:18;;;;;;;21.50;20.33;;;;;;;;;;4998399;28;20048;-64
2023/05/20 04:20:44;;;;;;;20.02;18.92;;;;;;;;;;4999771;28;20765;-65
2023/05/20 04:23:09;;;;;;;20.48;19.33;;;;;;;;;;5000762;28;20342;-64
2023/05/20 04:25:35;;;;;;;19.88;18.80;;;;;;;;;;4996808;28;20034;-64
2023/05/20 04:28:00;;;;;;;19.58;18.50;;;;;;;;;;4998574;28;20034;-64
2023/05/20 04:30:25;;;;;;;19.27;18.23;;;;;;;;;;4998946;28;20031;-64
2023/05/20 04:32:52;;;;;;;19.15;18.05;;;;;;;;;;4997304;28;20496;-58
2023/05/20 04:35:18;;;;;;;19.45;18.30;;;;;;;;;;4998456;28;20037;-58
2023/05/20 04:37:46;;;;;;;18.75;17.70;;;;;;;;;;4999350;28;20037;-59
2023/05/20 04:40:12;;;;;;;18.35;17.30;;;;;;;;;;4999942;28;20041;-59
2023/05/20 04:42:38;;;;;;;17.80;16.80;;;;;;;;;;4996432;28;20037;-59
2023/05/20 04:45:04;;;;;;;19.60;18.50;;;;;;;;;;4999646;28;20036;-58
2023/05/20 04:47:31;;;;;;;17.92;16.92;;;;;;;;;;4996404;28;20358;-59
2023/05/20 04:49:56;;;;;;;17.27;16.13;;;;;;;;;;4996496;28;20104;-58
2023/05/20 04:52:24;;;;;;;16.63;15.70;;;;;;;;;;4995637;28;20030;-65
2023/05/20 04:54:51;;;;;;;16.23;15.32;;;;;;;;;;4996734;28;20069;-64
2023/05/20 04:57:19;;;;;;;16.70;15.80;;;;;;;;;;4995596;28;20091;-65
2023/05/20 04:59:46;;;;;;;17.13;16.15;;;;;;;;;;4998526;28;20080;-64
2023/05/20 05:02:11;;;;;;;15.73;14.82;;;;;;;;;;5001147;28;20053;-65
2023/05/20 05:04:36;;;;;;;17.50;16.50;;;;;;;;;;4999039;28;20143;-64
2023/05/20 05:07:02;;;;;;;15.45;14.55;;;;;;;;;;4996092;28;20026;-65
2023/05/20 05:09:27;;;;;;;16.98;15.98;;;;;;;;;;4999465;28;20052;-65
2023/05/20 05:11:52;;;;;;;16.25;15.30;;;;;;;;;;4998416;28;20044;-65
2023/05/20 05:14:18;;;;;;;16.08;15.15;;;;;;;;;;4997704;28;20030;-65
2023/05/20 05:16:43;;;;;;;14.57;13.75;;;;;;;;;;4997913;28;20084;-65
2023/05/20 05:19:08;;;;;;;16.20;15.10;;;;;;;;;;4995926;28;20038;-64
2023/05/20 05:21:34;;;;;;;15.18;14.18;;;;;;;;;;4999374;28;20033;-64
2023/05/20 05:23:59;;;;;;;15.50;14.60;;;;;;;;;;5001425;28;20041;-64
2023/05/20 05:26:25;;;;;;;16.88;15.98;;;;;;;;;;4998760;28;20047;-58
2023/05/20 05:28:51;;;;;;;17.50;16.50;;;;;;;;;;4995991;28;20038;-58
2023/05/20 05:31:16;;;;;;;16.13;15.23;;;;;;;;;;4995198;28;20625;-64
2023/05/20 05:33:42;;;;;;;17.85;16.80;;;;;;;;;;4997886;28;20038;-66
2023/05/20 05:36:07;;;;;;;16.90;15.90;;;;;;;;;;4998341;28;20134;-59
2023/05/20 05:38:32;;;;;;;15.70;14.80;;;;;;;;;;5000475;28;20042;-59
2023/05/20 05:40:58;;;;;;;16.85;15.85;;;;;;;;;;4995597;28;21510;-66
2023/05/20 05:43:23;;;;;;;18.75;17.55;;;;;;;;;;4997781;28;20135;-66
2023/05/20 05:45:49;;;;;;;17.23;16.23;;;;;;;;;;4994684;28;20046;-59
2023/05/20 05:48:14;;;;;;;16.33;15.43;;;;;;;;;;4996449;28;20168;-59
2023/05/20 05:50:43;;;;;;;20.23;19.13;;;;;;;;;;4997827;28;20033;-59
2023/05/20 05:53:09;;;;;;;16.23;15.23;;;;;;;;;;4994215;28;20027;-58
2023/05/20 05:55:35;;;;;;;18.83;17.67;;;;;;;;;;4992669;28;20161;-58
2023/05/20 05:58:00;;;;;;;18.25;17.25;;;;;;;;;;4995224;28;20050;-59
2023/05/20 06:00:25;;;;;;;18.35;17.25;;;;;;;;;;4997594;28;20041;-60
2023/05/20 06:02:51;;;;;;;17.13;16.15;;;;;;;;;;4996162;28;20100;-60
2023/05/20 06:05:16;;;;;;;18.77;17.70;;;;;;;;;;4994715;28;20509;-59
2023/05/20 06:07:41;;;;;;;17.25;16.30;;;;;;;;;;4994790;28;20030;-61
2023/05/20 06:10:07;;;;;;;17.17;16.17;;;;;;;;;;4994924;28;20444;-58
2023/05/20 06:12:33;;;;;;;19.00;17.70;;;;;;;;;;4984295;28;20030;-58
2023/05/20 06:14:58;;;;;;;18.33;17.33;;;;;;;;;;4995604;28;20149;-57
2023/05/20 06:17:23;;;;;;;17.27;16.27;;;;;;;;;;4997057;28;20121;-57
2023/05/20 06:19:49;;;;;;;17.33;16.33;;;;;;;;;;4994914;28;20046;-64
2023/05/20 06:22:14;;;;;;;18.77;17.67;;;;;;;;;;4995984;28;20073;-65
2023/05/20 06:24:39;;;;;;;19.50;18.30;;;;;;;;;;4984395;28;20034;-65
2023/05/20 06:27:05;;;;;;;18.35;17.30;;;;;;;;;;4993235;28;20047;-64
2023/05/20 06:29:30;;;;;;;19.20;18.10;;;;;;;;;;4993148;28;20040;-64
2023/05/20 06:31:55;;;;;;;20.02;18.90;;;;;;;;;;4997647;28;20034;-65
2023/05/20 06:34:21;;;;;;;18.95;17.60;;;;;;;;;;4996227;28;20056;-65
2023/05/20 06:36:46;;;;;;;19.73;18.55;;;;;;;;;;4999328;28;20038;-59
2023/05/20 06:39:11;;;;;;;16.77;15.82;;;;;;;;;;4998135;28;20038;-59
2023/05/20 06:41:40;;;;;;;17.48;16.33;;;;;;;;;;4997930;28;20030;-65
2023/05/20 06:44:06;;;;;;;17.70;16.70;;;;;;;;;;5000801;28;20058;-66
2023/05/20 06:46:32;;;;;;;18.65;17.63;;;;;;;;;;4999610;28;20030;-65
2023/05/20 06:48:58;;;;;;;19.48;18.38;;;;;;;;;;4999444;28;20038;-66
2023/05/20 06:51:23;;;;;;;19.10;18.00;;;;;;;;;;4998692;28;20483;-66
2023/05/20 06:53:48;;;;;;;18.73;17.63;;;;;;;;;;4997661;28;20069;-65
2023/05/20 06:56:14;;;;;;;19.30;18.15;;;;;;;;;;5000674;28;20064;-65
2023/05/20 06:58:40;;;;;;;18.08;17.08;;;;;;;;;;4999265;28;20034;-64
2023/05/20 07:01:05;;;;;;;19.25;18.15;;;;;;;;;;5001451;28;20066;-67
2023/05/20 07:03:30;;;;;;;18.27;17.27;;;;;;;;;;5001676;28;20479;-65
2023/05/20 07:05:56;;;;;;;19.35;18.15;;;;;;;;;;5000789;28;20831;-64
2023/05/20 07:08:21;;;;;;;17.08;16.15;;;;;;;;;;5000736;28;20041;-63
2023/05/20 07:10:46;;;;;;;19.60;18.38;;;;;;;;;;5000799;28;20041;-63
2023/05/20 07:13:12;;;;;;;18.70;17.70;;;;;;;;;;5003196;28;20040;-63
2023/05/20 07:15:37;;;;;;;20.17;19.08;;;;;;;;;;4999074;28;20050;-63
2023/05/20 07:18:03;;;;;;;18.30;17.30;;;;;;;;;;4997092;28;20747;-64
2023/05/20 07:20:28;;;;;;;19.60;18.50;;;;;;;;;;5002590;28;20861;-63
2023/05/20 07:22:53;;;;;;;20.10;19.00;;;;;;;;;;5002182;28;20074;-64
2023/05/20 07:25:19;;;;;;;19.25;18.15;;;;;;;;;;4984360;28;20033;-64
2023/05/20 07:27:45;;;;;;;19.27;18.17;;;;;;;;;;4999050;28;20479;-61
2023/05/20 07:30:10;;;;;;;21.27;20.08;;;;;;;;;;5001846;28;20040;-60
2023/05/20 07:32:35;;;;;;;19.13;18.02;;;;;;;;;;4998061;28;20033;-64
2023/05/20 07:35:01;;;;;;;19.20;18.10;;;;;;;;;;4998137;28;20035;-63
2023/05/20 07:37:26;;;;;;;17.33;16.23;;;;;;;;;;4999415;28;20061;-64
2023/05/20 07:39:52;;;;;;;15.13;14.23;;;;;;;;;;4994991;28;20076;-63
2023/05/20 07:42:17;;;;;;;14.05;13.23;;;;;;;;;;4999311;28;20065;-64
2023/05/20 07:44:43;;;;;;;13.70;12.90;;;;;;;;;;5000285;28;20444;-62
2023/05/20 07:47:08;;;;;;;15.90;14.90;;;;;;;;;;4999035;28;20481;-64
2023/05/20 07:49:33;;;;;;;13.13;12.27;;;;;;;;;;4997399;28;20412;-64
2023/05/20 07:51:59;;;;;;;14.80;13.80;;;;;;;;;;4999862;28;20598;-66
2023/05/20 07:54:24;;;;;;;13.32;12.52;;;;;;;;;;4985330;28;20045;-62
2023/05/20 07:56:50;;;;;;;14.02;13.23;;;;;;;;;;4996796;28;20453;-64
2023/05/20 07:59:15;;;;;;;12.75;11.93;;;;;;;;;;4999900;28;20136;-66
2023/05/20 08:01:41;;;;;;;11.85;11.15;;;;;;;;;;4999410;28;20033;-64
2023/05/20 08:04:07;;;;;;;13.13;12.32;;;;;;;;;;5000581;28;20045;-65
2023/05/20 08:06:34;;;;;;;12.80;12.02;;;;;;;;;;4998816;28;20029;-65
2023/05/20 08:09:00;;;;;;;12.10;11.40;;;;;;;;;;4999962;28;20041;-64
2023/05/20 08:11:26;;;;;;;14.15;13.25;;;;;;;;;;4997167;28;20508;-63
2023/05/20 08:13:51;;;;;;;13.45;12.65;;;;;;;;;;4997141;28;20038;-64
2023/05/20 08:16:17;;;;;;;12.85;12.10;;;;;;;;;;4995729;28;20026;-63
2023/05/20 08:18:42;;;;;;;12.68;11.95;;;;;;;;;;5000169;28;20045;-66
2023/05/20 08:21:08;;;;;;;13.25;12.45;;;;;;;;;;4999384;28;20568;-65
2023/05/20 08:23:34;;;;;;;13.30;12.50;;;;;;;;;;4996395;28;20026;-63
2023/05/20 08:26:03;;;;;;;15.02;14.02;;;;;;;;;;5002342;28;20042;-64
2023/05/20 08:28:29;;;;;;;13.48;12.68;;;;;;;;;;4996645;28;20109;-64
2023/05/20 08:30:56;;;;;;;15.95;14.98;;;;;;;;;;4998879;28;20069;-63
2023/05/20 08:33:22;;;;;;;15.50;14.50;;;;;;;;;;4998768;28;20034;-64
2023/05/20 08:35:48;;;;;;;15.35;14.40;;;;;;;;;;4986170;28;20384;-65
2023/05/20 08:38:13;;;;;;;13.45;12.60;;;;;;;;;;4997753;28;20109;-65
2023/05/20 08:40:39;;;;;;;13.25;12.45;;;;;;;;;;4996950;28;20074;-65
2023/05/20 08:43:05;;;;;;;14.00;13.13;;;;;;;;;;4995604;28;20034;-65
2023/05/20 08:45:32;;;;;;;13.68;12.88;;;;;;;;;;4996623;28;20525;-65
2023/05/20 08:47:57;;;;;;;13.63;12.82;;;;;;;;;;4999593;28;20101;-64
2023/05/20 08:50:23;;;;;;;14.32;13.52;;;;;;;;;;4996688;28;20107;-65
2023/05/20 08:52:48;;;;;;;14.82;13.88;;;;;;;;;;4996673;28;20041;-64
2023/05/20 08:55:23;;;;;;;14.23;13.43;;;;;;;;;;5000563;28;20422;-67
2023/05/20 08:57:54;;;;;;;13.73;12.93;;;;;;;;;;4997078;28;20030;-66
2023/05/20 09:00:25;;;;;;;13.38;12.57;;;;;;;;;;4981043;28;20088;-64
2023/05/20 09:02:52;;;;;;;16.95;15.80;;;;;;;;;;4996794;28;20038;-65
2023/05/20 09:05:18;;;;;;;15.43;14.43;;;;;;;;;;4997198;28;20026;-66
2023/05/20 09:07:43;;;;;;;15.20;14.30;;;;;;;;;;4998475;28;20048;-64
2023/05/20 09:10:09;;;;;;;14.82;13.93;;;;;;;;;;4995423;28;20117;-65
2023/05/20 09:12:35;;;;;;;15.63;14.73;;;;;;;;;;4995128;28;20033;-68
2023/05/20 09:15:00;;;;;;;14.75;13.88;;;;;;;;;;4995079;28;20041;-64
2023/05/20 09:17:26;;;;;;;14.20;13.40;;;;;;;;;;4996359;28;20042;-64
2023/05/20 09:19:54;;;;;;;14.07;13.18;;;;;;;;;;4997362;28;20030;-63
2023/05/20 09:22:24;;;;;;;14.55;13.75;;;;;;;;;;4996160;28;20072;-66
2023/05/20 09:24:50;;;;;;;16.10;15.13;;;;;;;;;;4995679;28;20038;-63
2023/05/20 09:27:15;;;;;;;14.65;13.77;;;;;;;;;;4996095;28;20034;-63
2023/05/20 09:29:42;;;;;;;17.05;15.95;;;;;;;;;;4997151;28;20476;-62
2023/05/20 09:32:09;;;;;;;16.33;15.13;;;;;;;;;;4999334;28;20100;-64
2023/05/20 09:34:36;;;;;;;16.50;15.50;;;;;;;;;;4996956;28;20109;-64
2023/05/20 09:37:02;;;;;;;16.60;15.60;;;;;;;;;;4995849;28;20044;-65
2023/05/20 09:39:32;;;;;;;20.08;18.90;;;;;;;;;;4995116;28;20034;-65
2023/05/20 09:42:05;;;;;;;20.73;19.50;;;;;;;;;;4983523;28;20042;-64
2023/05/20 09:44:32;;;;;;;18.13;17.10;;;;;;;;;;4996418;28;20117;-62
2023/05/20 09:46:59;;;;;;;18.90;17.88;;;;;;;;;;4996660;28;20034;-62
2023/05/20 09:49:27;;;;;;;24.63;23.27;;;;;;;;;;4995617;28;20128;-64
2023/05/20 09:51:53;;;;;;;30.38;28.73;;;;;;;;;;4995045;28;20544;-63
2023/05/20 09:54:21;;;;;;;30.85;29.20;;;;;;;;;;4986593;28;20040;-64
2023/05/20 09:56:46;;;;;;;28.98;27.15;;;;;;;;;;4999581;28;20045;-65
2023/05/20 09:59:15;;;;;;;37.97;36.00;;;;;;;;;;4998254;28;20030;-62
2023/05/20 10:01:41;;;;;;;22.20;20.98;;;;;;;;;;4995468;28;20437;-62
2023/05/20 10:04:08;;;;;;;36.78;34.83;;;;;;;;;;4994963;28;20049;-63
2023/05/20 10:06:57;;;;;;;42.90;40.42;;;;;;;;;;4998035;28;20037;-63
2023/05/20 10:09:59;;;;;;;46.08;43.67;;;;;;;;;;4997179;28;20041;-64
2023/05/20 10:12:33;;;;;;;51.20;48.58;;;;;;;;;;5000447;28;20038;-63
2023/05/20 10:15:17;;;;;;;48.72;46.22;;;;;;;;;;4997878;28;20037;-63
2023/05/20 10:17:50;;;;;;;45.95;43.63;;;;;;;;;;5003522;28;20121;-64
2023/05/20 10:20:16;;;;;;;47.13;44.65;;;;;;;;;;5003418;28;20040;-64
2023/05/20 10:22:44;;;;;;;55.92;53.08;;;;;;;;;;4983709;28;20031;-63
2023/05/20 10:25:11;;;;;;;51.65;49.03;;;;;;;;;;5001802;28;20033;-62
2023/05/20 10:27:46;;;;;;;55.03;52.20;;;;;;;;;;5003673;28;20066;-63
2023/05/20 10:30:19;;;;;;;61.35;58.15;;;;;;;;;;4999164;28;20038;-63
2023/05/20 10:33:03;;;;;;;62.35;59.05;;;;;;;;;;5002334;28;20120;-62
2023/05/20 10:35:29;;;;;;;49.88;47.35;;;;;;;;;;4995371;28;20057;-64
2023/05/20 10:38:11;;;;;;;57.33;54.40;;;;;;;;;;4999358;28;20123;-62
2023/05/20 10:40:37;;;;;;;55.08;52.30;;;;;;;;;;5002191;28;20434;-62
2023/05/20 10:43:13;;;;;;;59.72;56.70;;;;;;;;;;4992874;28;20034;-62
2023/05/20 10:45:50;;;;;;;56.80;53.92;;;;;;;;;;5001529;28;20450;-65
2023/05/20 10:48:31;;;;;;;63.08;59.90;;;;;;;;;;5001627;28;20087;-62
2023/05/20 10:51:02;;;;;;;57.88;54.92;;;;;;;;;;4997439;28;20349;-63
2023/05/20 10:53:29;;;;;;;61.35;58.28;;;;;;;;;;5002092;28;20030;-63
2023/05/20 10:55:55;;;;;;;59.35;56.35;;;;;;;;;;4996909;28;20042;-62
2023/05/20 10:58:23;;;;;;;56.63;53.60;;;;;;;;;;4960201;28;20448;-62
2023/05/20 11:00:54;;;;;;;63.42;60.17;;;;;;;;;;4998014;28;20042;-63
2023/05/20 11:03:21;;;;;;;;;;;;;;;;;;4999840;28;20120;-65
2023/05/20 11:05:47;;;;;;;35.13;33.22;;;;;;;;;;4999433;28;19917;-65
2023/05/20 11:08:13;;;;;;;36.30;34.33;;;;;;;;;;5002018;28;20060;-65
2023/05/20 11:10:41;;;;;;;42.25;40.08;;;;;;;;;;5002201;28;20212;-63
2023/05/20 11:13:07;;;;;;;44.67;42.33;;;;;;;;;;4996598;28;20413;-62
2023/05/20 11:15:34;;;;;;;54.10;51.25;;;;;;;;;;4999099;28;20037;-63
2023/05/20 11:18:03;;;;;;;44.85;42.55;;;;;;;;;;4998476;28;20034;-63
2023/05/20 11:20:33;;;;;;;33.05;31.27;;;;;;;;;;5000086;28;20164;-63
2023/05/20 11:23:00;;;;;;;27.27;25.80;;;;;;;;;;5001327;28;20038;-61
2023/05/20 11:25:27;;;;;;;24.15;22.85;;;;;;;;;;4997376;28;20030;-64
2023/05/20 11:27:52;;;;;;;29.65;27.90;;;;;;;;;;5000091;28;20145;-67
2023/05/20 11:30:19;;;;;;;24.75;23.42;;;;;;;;;;5001111;28;20520;-63
2023/05/20 11:33:03;;;;;;;28.00;26.50;;;;;;;;;;4981005;28;20026;-62
2023/05/20 11:35:32;;;;;;;36.90;34.95;;;;;;;;;;4999981;28;20133;-62
2023/05/20 11:38:05;;;;;;;66.90;63.50;;;;;;;;;;4975746;28;20031;-61
2023/05/20 11:40:31;;;;;;;50.22;47.42;;;;;;;;;;5000265;28;20029;-62
2023/05/20 11:42:58;;;;;;;60.10;57.00;;;;;;;;;;4996834;28;20030;-63
2023/05/20 11:45:24;;;;;;;23.75;22.45;;;;;;;;;;4999270;28;20033;-63
2023/05/20 11:48:03;;;;;;;58.45;55.53;;;;;;;;;;4998135;28;20044;-64
2023/05/20 11:50:34;;;;;;;21.27;20.08;;;;;;;;;;4999325;28;20038;-63
2023/05/20 11:53:02;;;;;;;40.92;38.67;;;;;;;;;;4996452;28;20114;-68
2023/05/20 11:55:27;;;;;;;22.23;20.98;;;;;;;;;;4998744;28;20574;-64
2023/05/20 11:57:54;;;;;;;30.80;29.10;;;;;;;;;;4997558;28;20042;-63
2023/05/20 12:00:19;;;;;;;29.73;28.13;;;;;;;;;;4999443;28;20034;-65
2023/05/20 12:02:45;;;;;;;23.65;22.40;;;;;;;;;;4997933;28;20092;-62
2023/05/20 12:05:12;;;;;;;30.13;28.52;;;;;;;;;;4999565;28;20037;-62
2023/05/20 12:07:38;;;;;;;24.60;23.30;;;;;;;;;;4987402;28;20330;-62
2023/05/20 12:10:04;;;;;;;26.80;25.38;;;;;;;;;;4987076;28;20026;-61
2023/05/20 12:12:29;;;;;;;24.38;23.08;;;;;;;;;;4996419;28;20520;-60
2023/05/20 12:14:54;;;;;;;66.95;63.60;;;;;;;;;;4998440;28;20546;-61
2023/05/20 12:17:20;;;;;;;45.33;42.97;;;;;;;;;;4999292;28;20030;-63
2023/05/20 12:19:45;;;;;;;47.53;44.95;;;;;;;;;;5000978;28;20048;-63
2023/05/20 12:22:11;;;;;;;35.13;33.17;;;;;;;;;;4997864;28;20045;-63
2023/05/20 12:24:36;;;;;;;29.77;28.17;;;;;;;;;;5001784;28;20687;-63
2023/05/20 12:27:02;;;;;;;25.05;23.65;;;;;;;;;;4978431;28;20207;-65
2023/05/20 12:29:28;;;;;;;24.77;23.38;;;;;;;;;;5004962;28;20049;-66
2023/05/20 12:31:54;;;;;;;24.90;23.50;;;;;;;;;;5000124;28;20337;-62
2023/05/20 12:34:19;;;;;;;25.00;23.60;;;;;;;;;;4995913;28;20472;-63
2023/05/20 12:36:45;;;;;;;38.95;36.75;;;;;;;;;;4997344;28;20181;-61
2023/05/20 12:39:11;;;;;;;24.88;23.48;;;;;;;;;;4997017;28;20456;-63
2023/05/20 12:41:36;;;;;;;22.25;21.02;;;;;;;;;;4997788;28;20059;-61
2023/05/20 12:44:01;;;;;;;23.77;22.38;;;;;;;;;;5000146;28;20037;-61
2023/05/20 12:46:27;;;;;;;34.28;32.42;;;;;;;;;;5000024;28;20054;-62
2023/05/20 12:48:52;;;;;;;23.25;21.95;;;;;;;;;;4997239;28;20061;-64
2023/05/20 12:51:19;;;;;;;20.77;19.58;;;;;;;;;;4980393;28;20081;-62
2023/05/20 12:53:44;;;;;;;36.42;34.38;;;;;;;;;;4998614;28;20722;-62
2023/05/20 12:56:09;;;;;;;22.23;20.98;;;;;;;;;;4979261;28;20034;-61
2023/05/20 12:58:35;;;;;;;20.98;19.88;;;;;;;;;;4998713;28;20034;-62
2023/05/20 13:01:00;;;;;;;28.85;26.92;;;;;;;;;;4997980;28;20034;-61
2023/05/20 13:03:25;;;;;;;26.77;25.38;;;;;;;;;;4985735;28;20526;-62
2023/05/20 13:05:51;;;;;;;21.50;20.30;;;;;;;;;;4995973;28;20467;-61
2023/05/20 13:08:16;;;;;;;25.42;24.02;;;;;;;;;;4995822;28;20029;-60
2023/05/20 13:10:42;;;;;;;22.20;20.95;;;;;;;;;;4997615;28;20518;-60
2023/05/20 13:13:07;;;;;;;25.65;24.23;;;;;;;;;;4996284;28;20812;-62
2023/05/20 13:15:33;;;;;;;24.70;23.30;;;;;;;;;;4997303;28;20038;-61
2023/05/20 13:18:00;;;;;;;26.70;25.30;;;;;;;;;;4995171;28;20110;-61
2023/05/20 13:20:25;;;;;;;22.13;20.92;;;;;;;;;;4998003;28;20377;-60
2023/05/20 13:22:51;;;;;;;22.17;20.95;;;;;;;;;;4996420;28;20099;-60
2023/05/20 13:25:16;;;;;;;23.52;22.23;;;;;;;;;;4996668;28;20033;-61
2023/05/20 13:27:42;;;;;;;24.15;22.85;;;;;;;;;;4979893;28;20082;-61
2023/05/20 13:30:07;;;;;;;23.58;22.17;;;;;;;;;;4995088;28;20380;-61
2023/05/20 13:32:33;;;;;;;22.55;21.35;;;;;;;;;;4980459;28;20126;-62
2023/05/20 13:34:58;;;;;;;22.50;21.10;;;;;;;;;;4996439;28;20534;-63
2023/05/20 13:37:24;;;;;;;21.15;19.95;;;;;;;;;;4986879;28;20033;-62
2023/05/20 13:39:50;;;;;;;23.98;22.60;;;;;;;;;;4997574;28;20084;-62
2023/05/20 13:42:15;;;;;;;24.88;23.38;;;;;;;;;;4985962;28;20030;-59
2023/05/20 13:44:41;;;;;;;31.45;29.67;;;;;;;;;;4999371;28;20033;-62
2023/05/20 13:47:06;;;;;;;25.13;23.63;;;;;;;;;;4995083;28;20068;-61
2023/05/20 13:49:31;;;;;;;24.73;23.33;;;;;;;;;;4994692;28;20053;-61
2023/05/20 13:51:57;;;;;;;25.05;23.67;;;;;;;;;;4999439;28;20030;-61
2023/05/20 13:54:22;;;;;;;25.65;24.23;;;;;;;;;;4995693;28;20041;-61
2023/05/20 13:56:48;;;;;;;46.53;44.08;;;;;;;;;;4985804;28;20037;-63
2023/05/20 13:59:13;;;;;;;24.58;23.25;;;;;;;;;;4994514;28;20184;-62
2023/05/20 14:01:43;;;;;;;31.50;29.75;;;;;;;;;;4995162;28;20963;-61
2023/05/20 14:04:09;;;;;;;27.77;26.15;;;;;;;;;;4994515;28;20295;-61
2023/05/20 14:06:35;;;;;;;33.78;31.77;;;;;;;;;;4984491;28;20037;-61
2023/05/20 14:09:01;;;;;;;36.60;34.58;;;;;;;;;;4995059;28;20354;-60
2023/05/20 14:11:27;;;;;;;22.20;21.00;;;;;;;;;;4995525;28;20150;-59
2023/05/20 14:13:52;;;;;;;28.13;26.63;;;;;;;;;;5001019;28;20037;-61